createdAt,value
2019-01-28T00:00:12.389Z,930.72
2019-01-28T00:00:25.397Z,930.74
2019-01-28T00:00:38.427Z,930.74
2019-01-28T00:00:51.454Z,930.72
2019-01-28T00:01:04.477Z,930.71
2019-01-28T00:01:17.438Z,930.75
2019-01-28T00:01:30.422Z,930.73
2019-01-28T00:01:43.494Z,930.73
2019-01-28T00:01:56.432Z,930.71
2019-01-28T00:02:09.471Z,930.69
2019-01-28T00:02:21.994Z,930.71
2019-01-28T00:02:34.993Z,930.7
2019-01-28T00:02:47.968Z,930.73
2019-01-28T00:03:00.948Z,930.73
2019-01-28T00:03:14.007Z,930.73
2019-01-28T00:03:27.028Z,930.72
2019-01-28T00:03:40.047Z,930.7
2019-01-28T00:03:53.012Z,930.71
2019-01-28T00:04:06.002Z,930.68
2019-01-28T00:04:19.044Z,930.74
2019-01-28T00:04:32.051Z,930.69
2019-01-28T00:04:45.024Z,930.71
2019-01-28T00:04:58.048Z,930.71
2019-01-28T00:05:11.040Z,930.67
2019-01-28T00:05:24.855Z,930.7
2019-01-28T00:05:37.829Z,930.67
2019-01-28T00:05:50.907Z,930.69
2019-01-28T00:06:03.932Z,930.67
2019-01-28T00:06:17.022Z,930.69
2019-01-28T00:06:30.047Z,930.73
2019-01-28T00:06:43.052Z,930.68
2019-01-28T00:06:56.142Z,930.72
2019-01-28T00:07:09.181Z,930.68
2019-01-28T00:07:22.250Z,930.68
2019-01-28T00:07:35.292Z,930.69
2019-01-28T00:07:48.341Z,930.65
2019-01-28T00:08:01.365Z,930.65
2019-01-28T00:08:14.340Z,930.69
2019-01-28T00:08:27.357Z,930.69
2019-01-28T00:08:40.430Z,930.63
2019-01-28T00:08:53.493Z,930.66
2019-01-28T00:09:06.535Z,930.66
2019-01-28T00:09:19.496Z,930.61
2019-01-28T00:09:32.003Z,930.65
2019-01-28T00:09:44.991Z,930.68
2019-01-28T00:09:58.134Z,930.65
2019-01-28T00:10:11.137Z,930.66
2019-01-28T00:10:24.128Z,930.64
2019-01-28T00:10:37.183Z,930.67
2019-01-28T00:10:50.199Z,930.7
2019-01-28T00:11:03.241Z,930.67
2019-01-28T00:11:16.288Z,930.69
2019-01-28T00:11:29.217Z,930.69
2019-01-28T00:11:42.127Z,930.7
2019-01-28T00:11:55.107Z,930.67
2019-01-28T00:12:08.066Z,930.71
2019-01-28T00:12:21.170Z,930.68
2019-01-28T00:12:34.140Z,930.66
2019-01-28T00:12:47.085Z,930.68
2019-01-28T00:13:00.062Z,930.66
2019-01-28T00:13:13.108Z,930.67
2019-01-28T00:13:26.081Z,930.71
2019-01-28T00:13:39.063Z,930.69
2019-01-28T00:13:52.060Z,930.7
2019-01-28T00:14:05.090Z,930.72
2019-01-28T00:14:18.154Z,930.68
2019-01-28T00:14:31.175Z,930.69
2019-01-28T00:14:44.129Z,930.69
2019-01-28T00:14:57.353Z,930.72
2019-01-28T00:15:10.479Z,930.69
2019-01-28T00:15:23.476Z,930.72
2019-01-28T00:15:36.507Z,930.72
2019-01-28T00:15:49.527Z,930.73
2019-01-28T00:16:02.498Z,930.72
2019-01-28T00:16:15.546Z,930.72
2019-01-28T00:16:28.551Z,930.74
2019-01-28T00:16:41.605Z,930.74
2019-01-28T00:16:54.628Z,930.75
2019-01-28T00:17:07.674Z,930.71
2019-01-28T00:17:20.665Z,930.73
2019-01-28T00:17:33.622Z,930.78
2019-01-28T00:17:46.976Z,930.76
2019-01-28T00:17:59.991Z,930.76
2019-01-28T00:18:13.010Z,930.78
2019-01-28T00:18:26.009Z,930.76
2019-01-28T00:18:39.017Z,930.74
2019-01-28T00:18:52.042Z,930.75
2019-01-28T00:19:04.559Z,930.76
2019-01-28T00:19:17.623Z,930.74
2019-01-28T00:19:30.122Z,930.74
2019-01-28T00:19:43.115Z,930.75
2019-01-28T00:19:56.109Z,930.76
2019-01-28T00:20:09.059Z,930.75
2019-01-28T00:20:22.026Z,930.77
2019-01-28T00:20:35.067Z,930.78
2019-01-28T00:20:48.062Z,930.77
2019-01-28T00:21:01.097Z,930.77
2019-01-28T00:21:14.176Z,930.77
2019-01-28T00:21:27.227Z,930.8
2019-01-28T00:21:40.262Z,930.76
2019-01-28T00:21:52.871Z,930.75
2019-01-28T00:22:05.891Z,930.78
2019-01-28T00:22:18.876Z,930.75
2019-01-28T00:22:31.819Z,930.76
2019-01-28T00:22:44.810Z,930.77
2019-01-28T00:22:57.869Z,930.77
2019-01-28T00:23:10.862Z,930.72
2019-01-28T00:23:23.855Z,930.74
2019-01-28T00:23:36.821Z,930.71
2019-01-28T00:23:49.796Z,930.73
2019-01-28T00:24:02.769Z,930.75
2019-01-28T00:24:15.733Z,930.75
2019-01-28T00:24:28.700Z,930.74
2019-01-28T00:24:41.760Z,930.75
2019-01-28T00:24:54.786Z,930.75
2019-01-28T00:25:07.819Z,930.79
2019-01-28T00:25:20.838Z,930.77
2019-01-28T00:25:33.814Z,930.77
2019-01-28T00:25:46.762Z,930.77
2019-01-28T00:25:59.742Z,930.76
2019-01-28T00:26:12.787Z,930.76
2019-01-28T00:26:25.849Z,930.76
2019-01-28T00:26:38.867Z,930.77
2019-01-28T00:26:51.900Z,930.74
2019-01-28T00:27:04.956Z,930.76
2019-01-28T00:27:17.954Z,930.77
2019-01-28T00:27:30.478Z,930.78
2019-01-28T00:27:43.494Z,930.8
2019-01-28T00:27:56.516Z,930.76
2019-01-28T00:28:09.057Z,930.78
2019-01-28T00:28:22.010Z,930.76
2019-01-28T00:28:36.469Z,930.73
2019-01-28T00:28:49.610Z,930.73
2019-01-28T00:29:02.637Z,930.76
2019-01-28T00:29:15.683Z,930.75
2019-01-28T00:29:28.666Z,930.77
2019-01-28T00:29:41.664Z,930.76
2019-01-28T00:29:54.653Z,930.75
2019-01-28T00:30:08.768Z,930.76
2019-01-28T00:30:21.796Z,930.78
2019-01-28T00:30:34.382Z,930.76
2019-01-28T00:30:47.376Z,930.77
2019-01-28T00:31:00.421Z,930.76
2019-01-28T00:31:13.435Z,930.76
2019-01-28T00:31:26.455Z,930.76
2019-01-28T00:31:39.581Z,930.78
2019-01-28T00:31:52.604Z,930.77
2019-01-28T00:32:05.616Z,930.77
2019-01-28T00:32:18.582Z,930.78
2019-01-28T00:32:31.554Z,930.76
2019-01-28T00:32:44.565Z,930.79
2019-01-28T00:32:57.591Z,930.74
2019-01-28T00:33:10.588Z,930.79
2019-01-28T00:33:23.613Z,930.75
2019-01-28T00:33:36.609Z,930.8
2019-01-28T00:33:49.654Z,930.79
2019-01-28T00:34:02.696Z,930.73
2019-01-28T00:34:15.682Z,930.77
2019-01-28T00:34:28.731Z,930.75
2019-01-28T00:34:41.720Z,930.73
2019-01-28T00:34:54.721Z,930.76
2019-01-28T00:35:07.725Z,930.74
2019-01-28T00:35:20.736Z,930.77
2019-01-28T00:35:33.756Z,930.74
2019-01-28T00:35:46.895Z,930.75
2019-01-28T00:35:59.958Z,930.78
2019-01-28T00:36:12.966Z,930.74
2019-01-28T00:36:26.025Z,930.77
2019-01-28T00:36:39.865Z,930.76
2019-01-28T00:36:52.873Z,930.76
2019-01-28T00:37:05.871Z,930.75
2019-01-28T00:37:18.880Z,930.8
2019-01-28T00:37:31.941Z,930.77
2019-01-28T00:37:44.930Z,930.8
2019-01-28T00:37:57.982Z,930.76
2019-01-28T00:38:10.950Z,930.79
2019-01-28T00:38:23.977Z,930.77
2019-01-28T00:38:36.984Z,930.8
2019-01-28T00:38:49.922Z,930.78
2019-01-28T00:39:02.962Z,930.79
2019-01-28T00:39:16.021Z,930.77
2019-01-28T00:39:29.007Z,930.82
2019-01-28T00:39:42.002Z,930.78
2019-01-28T00:39:54.971Z,930.79
2019-01-28T00:40:08.025Z,930.81
2019-01-28T00:40:21.039Z,930.78
2019-01-28T00:40:34.067Z,930.78
2019-01-28T00:40:47.095Z,930.76
2019-01-28T00:41:00.095Z,930.78
2019-01-28T00:41:13.146Z,930.77
2019-01-28T00:41:26.169Z,930.77
2019-01-28T00:41:39.245Z,930.77
2019-01-28T00:41:52.259Z,930.76
2019-01-28T00:42:05.264Z,930.76
2019-01-28T00:42:18.295Z,930.75
2019-01-28T00:42:31.360Z,930.76
2019-01-28T00:42:44.427Z,930.74
2019-01-28T00:42:57.438Z,930.77
2019-01-28T00:43:09.956Z,930.78
2019-01-28T00:43:22.918Z,930.74
2019-01-28T00:43:35.946Z,930.78
2019-01-28T00:43:49.004Z,930.73
2019-01-28T00:44:02.010Z,930.78
2019-01-28T00:44:15.005Z,930.74
2019-01-28T00:44:27.980Z,930.76
2019-01-28T00:44:41.007Z,930.75
2019-01-28T00:44:54.042Z,930.79
2019-01-28T00:45:07.236Z,930.78
2019-01-28T00:45:21.101Z,930.79
2019-01-28T00:45:34.126Z,930.76
2019-01-28T00:45:47.218Z,930.8
2019-01-28T00:46:00.151Z,930.8
2019-01-28T00:46:13.120Z,930.81
2019-01-28T00:46:26.120Z,930.82
2019-01-28T00:46:39.175Z,930.81
2019-01-28T00:46:52.213Z,930.79
2019-01-28T00:47:05.207Z,930.82
2019-01-28T00:47:18.201Z,930.79
2019-01-28T00:47:31.159Z,930.77
2019-01-28T00:47:44.176Z,930.79
2019-01-28T00:47:57.160Z,930.77
2019-01-28T00:48:10.131Z,930.76
2019-01-28T00:48:23.749Z,930.77
2019-01-28T00:48:36.773Z,930.75
2019-01-28T00:48:49.761Z,930.75
2019-01-28T00:49:02.742Z,930.76
2019-01-28T00:49:15.758Z,930.77
2019-01-28T00:49:28.729Z,930.76
2019-01-28T00:49:41.742Z,930.75
2019-01-28T00:49:54.685Z,930.76
2019-01-28T00:50:07.348Z,930.78
2019-01-28T00:50:20.368Z,930.78
2019-01-28T00:50:33.350Z,930.78
2019-01-28T00:50:46.428Z,930.79
2019-01-28T00:50:59.440Z,930.8
2019-01-28T00:51:12.461Z,930.79
2019-01-28T00:51:25.459Z,930.8
2019-01-28T00:51:38.444Z,930.79
2019-01-28T00:51:51.504Z,930.85
2019-01-28T00:52:04.485Z,930.82
2019-01-28T00:52:17.519Z,930.8
2019-01-28T00:52:30.469Z,930.81
2019-01-28T00:52:43.421Z,930.81
2019-01-28T00:52:56.387Z,930.84
2019-01-28T00:53:09.364Z,930.85
2019-01-28T00:53:22.363Z,930.82
2019-01-28T00:53:35.375Z,930.81
2019-01-28T00:53:48.414Z,930.8
2019-01-28T00:54:01.393Z,930.81
2019-01-28T00:54:14.341Z,930.81
2019-01-28T00:54:27.306Z,930.81
2019-01-28T00:54:40.298Z,930.8
2019-01-28T00:54:53.267Z,930.8
2019-01-28T00:55:06.282Z,930.8
2019-01-28T00:55:19.307Z,930.83
2019-01-28T00:55:32.300Z,930.8
2019-01-28T00:55:44.920Z,930.82
2019-01-28T00:55:57.943Z,930.81
2019-01-28T00:56:10.940Z,930.82
2019-01-28T00:56:23.963Z,930.8
2019-01-28T00:56:36.964Z,930.78
2019-01-28T00:56:49.503Z,930.78
2019-01-28T00:57:02.505Z,930.8
2019-01-28T00:57:15.556Z,930.8
2019-01-28T00:57:28.553Z,930.78
2019-01-28T00:57:41.573Z,930.76
2019-01-28T00:57:54.514Z,930.82
2019-01-28T00:58:07.598Z,930.76
2019-01-28T00:58:20.558Z,930.77
2019-01-28T00:58:33.548Z,930.79
2019-01-28T00:58:46.524Z,930.78
2019-01-28T00:58:59.552Z,930.8
2019-01-28T00:59:12.598Z,930.78
2019-01-28T00:59:25.634Z,930.75
2019-01-28T00:59:38.650Z,930.79
2019-01-28T00:59:51.712Z,930.76
2019-01-28T01:00:04.736Z,930.79
2019-01-28T01:00:17.768Z,930.78
2019-01-28T01:00:30.792Z,930.81
2019-01-28T01:00:43.811Z,930.81
2019-01-28T01:00:56.845Z,930.8
2019-01-28T01:01:09.809Z,930.81
2019-01-28T01:01:22.733Z,930.8
2019-01-28T01:01:35.749Z,930.82
2019-01-28T01:01:49.152Z,930.78
2019-01-28T01:02:02.193Z,930.83
2019-01-28T01:02:14.713Z,930.8
2019-01-28T01:02:27.655Z,930.8
2019-01-28T01:02:40.619Z,930.78
2019-01-28T01:02:53.624Z,930.83
2019-01-28T01:03:06.691Z,930.84
2019-01-28T01:03:19.705Z,930.84
2019-01-28T01:03:32.756Z,930.82
2019-01-28T01:03:45.788Z,930.86
2019-01-28T01:03:58.752Z,930.84
2019-01-28T01:04:11.782Z,930.82
2019-01-28T01:04:24.781Z,930.8
2019-01-28T01:04:37.382Z,930.84
2019-01-28T01:04:50.375Z,930.83
2019-01-28T01:05:03.398Z,930.81
2019-01-28T01:05:16.399Z,930.83
2019-01-28T01:05:29.352Z,930.83
2019-01-28T01:05:42.306Z,930.8
2019-01-28T01:05:55.285Z,930.82
2019-01-28T01:06:08.310Z,930.81
2019-01-28T01:06:21.301Z,930.8
2019-01-28T01:06:34.316Z,930.85
2019-01-28T01:06:47.351Z,930.84
2019-01-28T01:07:00.371Z,930.85
2019-01-28T01:07:13.348Z,930.87
2019-01-28T01:07:26.309Z,930.85
2019-01-28T01:07:39.342Z,930.86
2019-01-28T01:07:52.357Z,930.86
2019-01-28T01:08:05.380Z,930.84
2019-01-28T01:08:18.365Z,930.85
2019-01-28T01:08:31.375Z,930.84
2019-01-28T01:08:44.439Z,930.88
2019-01-28T01:08:57.411Z,930.88
2019-01-28T01:09:10.392Z,930.88
2019-01-28T01:09:23.388Z,930.89
2019-01-28T01:09:36.411Z,930.89
2019-01-28T01:09:49.406Z,930.86
2019-01-28T01:10:02.417Z,930.89
2019-01-28T01:10:15.423Z,930.86
2019-01-28T01:10:28.379Z,930.87
2019-01-28T01:10:41.398Z,930.87
2019-01-28T01:10:54.452Z,930.86
2019-01-28T01:11:07.493Z,930.89
2019-01-28T01:11:20.505Z,930.9
2019-01-28T01:11:33.553Z,930.89
2019-01-28T01:11:46.596Z,930.89
2019-01-28T01:11:59.563Z,930.89
2019-01-28T01:12:12.550Z,930.91
2019-01-28T01:12:25.561Z,930.92
2019-01-28T01:12:38.563Z,930.87
2019-01-28T01:12:51.550Z,930.91
2019-01-28T01:13:04.548Z,930.88
2019-01-28T01:13:17.604Z,930.91
2019-01-28T01:13:30.652Z,930.88
2019-01-28T01:13:43.630Z,930.91
2019-01-28T01:13:56.610Z,930.91
2019-01-28T01:14:09.656Z,930.88
2019-01-28T01:14:22.638Z,930.88
2019-01-28T01:14:35.668Z,930.88
2019-01-28T01:14:48.638Z,930.87
2019-01-28T01:15:01.700Z,930.89
2019-01-28T01:15:14.730Z,930.86
2019-01-28T01:15:28.096Z,930.86
2019-01-28T01:15:41.078Z,930.87
2019-01-28T01:15:54.117Z,930.87
2019-01-28T01:16:07.122Z,930.88
2019-01-28T01:16:20.133Z,930.85
2019-01-28T01:16:33.143Z,930.89
2019-01-28T01:16:45.728Z,930.87
2019-01-28T01:16:58.755Z,930.85
2019-01-28T01:17:11.751Z,930.86
2019-01-28T01:17:24.808Z,930.86
2019-01-28T01:17:37.826Z,930.87
2019-01-28T01:17:50.840Z,930.9
2019-01-28T01:18:03.809Z,930.86
2019-01-28T01:18:16.840Z,930.87
2019-01-28T01:18:29.878Z,930.89
2019-01-28T01:18:42.876Z,930.9
2019-01-28T01:18:55.922Z,930.9
2019-01-28T01:19:08.894Z,930.9
2019-01-28T01:19:21.820Z,930.85
2019-01-28T01:19:34.819Z,930.87
2019-01-28T01:19:47.847Z,930.85
2019-01-28T01:20:00.825Z,930.88
2019-01-28T01:20:13.812Z,930.9
2019-01-28T01:20:26.883Z,930.91
2019-01-28T01:20:39.876Z,930.87
2019-01-28T01:20:52.836Z,930.9
2019-01-28T01:21:05.880Z,930.89
2019-01-28T01:21:18.950Z,930.9
2019-01-28T01:21:31.942Z,930.91
2019-01-28T01:21:44.957Z,930.9
2019-01-28T01:21:57.912Z,930.92
2019-01-28T01:22:10.901Z,930.9
2019-01-28T01:22:23.863Z,930.89
2019-01-28T01:22:36.844Z,930.89
2019-01-28T01:22:49.872Z,930.92
2019-01-28T01:23:02.888Z,930.92
2019-01-28T01:23:15.955Z,930.94
2019-01-28T01:23:28.978Z,930.96
2019-01-28T01:23:42.069Z,930.96
2019-01-28T01:23:55.096Z,930.95
2019-01-28T01:24:08.143Z,930.95
2019-01-28T01:24:21.191Z,930.99
2019-01-28T01:24:34.211Z,930.97
2019-01-28T01:24:47.184Z,930.96
2019-01-28T01:25:00.248Z,930.98
2019-01-28T01:25:13.335Z,930.95
2019-01-28T01:25:26.384Z,930.99
2019-01-28T01:25:39.512Z,930.97
2019-01-28T01:25:52.527Z,931
2019-01-28T01:26:05.525Z,930.99
2019-01-28T01:26:18.507Z,930.96
2019-01-28T01:26:31.086Z,930.98
2019-01-28T01:26:44.024Z,930.99
2019-01-28T01:26:57.050Z,930.97
2019-01-28T01:27:10.058Z,930.97
2019-01-28T01:27:23.031Z,931.01
2019-01-28T01:27:36.045Z,931
2019-01-28T01:27:49.047Z,930.99
2019-01-28T01:28:02.099Z,930.97
2019-01-28T01:28:15.084Z,930.96
2019-01-28T01:28:28.138Z,930.98
2019-01-28T01:28:41.144Z,930.98
2019-01-28T01:28:54.186Z,931.01
2019-01-28T01:29:06.699Z,930.94
2019-01-28T01:29:19.719Z,930.96
2019-01-28T01:29:32.797Z,930.96
2019-01-28T01:29:45.786Z,930.94
2019-01-28T01:29:58.827Z,930.95
2019-01-28T01:30:11.812Z,930.94
2019-01-28T01:30:24.862Z,930.95
2019-01-28T01:30:38.181Z,930.97
2019-01-28T01:30:51.220Z,930.95
2019-01-28T01:31:04.159Z,930.94
2019-01-28T01:31:17.254Z,930.98
2019-01-28T01:31:30.241Z,930.95
2019-01-28T01:31:43.262Z,930.98
2019-01-28T01:31:56.225Z,930.96
2019-01-28T01:32:09.184Z,930.96
2019-01-28T01:32:22.198Z,930.96
2019-01-28T01:32:35.197Z,930.92
2019-01-28T01:32:48.195Z,930.96
2019-01-28T01:33:01.220Z,930.97
2019-01-28T01:33:14.152Z,930.97
2019-01-28T01:33:27.139Z,930.96
2019-01-28T01:33:40.155Z,930.98
2019-01-28T01:33:53.165Z,930.97
2019-01-28T01:34:06.192Z,930.94
2019-01-28T01:34:19.225Z,930.98
2019-01-28T01:34:31.779Z,930.95
2019-01-28T01:34:44.683Z,930.97
2019-01-28T01:34:57.182Z,931
2019-01-28T01:35:10.210Z,930.96
2019-01-28T01:35:23.270Z,930.96
2019-01-28T01:35:36.302Z,930.98
2019-01-28T01:35:49.266Z,930.97
2019-01-28T01:36:02.254Z,930.99
2019-01-28T01:36:15.322Z,930.98
2019-01-28T01:36:28.316Z,931.02
2019-01-28T01:36:41.300Z,930.96
2019-01-28T01:36:54.337Z,930.96
2019-01-28T01:37:07.405Z,930.97
2019-01-28T01:37:20.395Z,930.94
2019-01-28T01:37:33.451Z,930.99
2019-01-28T01:37:46.459Z,930.94
2019-01-28T01:37:59.462Z,930.95
2019-01-28T01:38:12.465Z,930.98
2019-01-28T01:38:25.494Z,930.98
2019-01-28T01:38:38.505Z,930.97
2019-01-28T01:38:51.498Z,930.98
2019-01-28T01:39:04.515Z,930.97
2019-01-28T01:39:17.462Z,930.93
2019-01-28T01:39:30.474Z,930.94
2019-01-28T01:39:43.438Z,930.94
2019-01-28T01:39:56.466Z,930.95
2019-01-28T01:40:09.457Z,930.95
2019-01-28T01:40:22.474Z,930.96
2019-01-28T01:40:35.455Z,930.93
2019-01-28T01:40:48.489Z,930.96
2019-01-28T01:41:01.116Z,930.96
2019-01-28T01:41:14.111Z,930.98
2019-01-28T01:41:27.058Z,930.95
2019-01-28T01:41:40.092Z,930.94
2019-01-28T01:41:53.086Z,930.93
2019-01-28T01:42:06.092Z,930.93
2019-01-28T01:42:19.073Z,930.92
2019-01-28T01:42:32.035Z,930.95
2019-01-28T01:42:45.083Z,931
2019-01-28T01:42:58.077Z,930.98
2019-01-28T01:43:11.100Z,930.96
2019-01-28T01:43:24.034Z,930.92
2019-01-28T01:43:37.053Z,930.94
2019-01-28T01:43:50.018Z,930.97
2019-01-28T01:44:03.051Z,930.94
2019-01-28T01:44:16.040Z,930.91
2019-01-28T01:44:29.080Z,930.93
2019-01-28T01:44:42.104Z,930.93
2019-01-28T01:44:55.170Z,930.98
2019-01-28T01:45:08.112Z,930.98
2019-01-28T01:45:21.175Z,930.95
2019-01-28T01:45:34.110Z,930.94
2019-01-28T01:45:47.771Z,930.91
2019-01-28T01:46:00.758Z,930.91
2019-01-28T01:46:13.770Z,930.95
2019-01-28T01:46:26.804Z,930.95
2019-01-28T01:46:39.848Z,930.92
2019-01-28T01:46:52.913Z,930.94
2019-01-28T01:47:05.917Z,930.95
2019-01-28T01:47:18.889Z,930.92
2019-01-28T01:47:31.834Z,930.93
2019-01-28T01:47:44.808Z,930.96
2019-01-28T01:47:57.828Z,930.95
2019-01-28T01:48:10.902Z,930.92
2019-01-28T01:48:23.920Z,930.94
2019-01-28T01:48:36.496Z,930.92
2019-01-28T01:48:49.508Z,930.91
2019-01-28T01:49:02.477Z,930.89
2019-01-28T01:49:15.457Z,930.91
2019-01-28T01:49:29.390Z,930.91
2019-01-28T01:49:42.411Z,930.92
2019-01-28T01:49:55.449Z,930.9
2019-01-28T01:50:08.489Z,930.9
2019-01-28T01:50:21.549Z,930.89
2019-01-28T01:50:34.489Z,930.9
2019-01-28T01:50:47.512Z,930.86
2019-01-28T01:51:00.448Z,930.89
2019-01-28T01:51:13.423Z,930.9
2019-01-28T01:51:26.403Z,930.9
2019-01-28T01:51:39.421Z,930.9
2019-01-28T01:51:52.420Z,930.92
2019-01-28T01:52:05.411Z,930.9
2019-01-28T01:52:18.446Z,930.9
2019-01-28T01:52:31.007Z,930.95
2019-01-28T01:52:44.010Z,930.91
2019-01-28T01:52:57.026Z,930.89
2019-01-28T01:53:10.005Z,930.92
2019-01-28T01:53:22.995Z,930.92
2019-01-28T01:53:36.059Z,930.91
2019-01-28T01:53:48.641Z,930.93
2019-01-28T01:54:01.682Z,930.91
2019-01-28T01:54:14.728Z,930.89
2019-01-28T01:54:27.650Z,930.93
2019-01-28T01:54:40.625Z,930.92
2019-01-28T01:54:53.619Z,930.92
2019-01-28T01:55:06.607Z,930.94
2019-01-28T01:55:19.577Z,930.92
2019-01-28T01:55:32.588Z,930.91
2019-01-28T01:55:45.628Z,930.93
2019-01-28T01:55:58.544Z,930.92
2019-01-28T01:56:11.491Z,930.91
2019-01-28T01:56:24.443Z,930.9
2019-01-28T01:56:37.448Z,930.89
2019-01-28T01:56:50.470Z,930.92
2019-01-28T01:57:03.549Z,930.89
2019-01-28T01:57:16.555Z,930.91
2019-01-28T01:57:29.541Z,930.91
2019-01-28T01:57:42.683Z,930.88
2019-01-28T01:57:55.702Z,930.9
2019-01-28T01:58:08.750Z,930.85
2019-01-28T01:58:23.124Z,930.87
2019-01-28T01:58:36.148Z,930.86
2019-01-28T01:58:49.170Z,930.9
2019-01-28T01:59:02.164Z,930.89
2019-01-28T01:59:15.139Z,930.85
2019-01-28T01:59:27.698Z,930.89
2019-01-28T01:59:40.709Z,930.88
2019-01-28T01:59:53.745Z,930.87
2019-01-28T02:00:06.757Z,930.87
2019-01-28T02:00:19.740Z,930.86
2019-01-28T02:00:32.315Z,930.88
2019-01-28T02:00:45.640Z,930.9
2019-01-28T02:00:58.692Z,930.9
2019-01-28T02:01:11.244Z,930.88
2019-01-28T02:01:23.730Z,930.88
2019-01-28T02:01:36.750Z,930.87
2019-01-28T02:01:49.771Z,930.89
2019-01-28T02:02:02.796Z,930.9
2019-01-28T02:02:15.849Z,930.88
2019-01-28T02:02:34.555Z,930.9
2019-01-28T02:02:47.577Z,930.91
2019-01-28T02:03:00.087Z,930.91
2019-01-28T02:03:13.092Z,930.92
2019-01-28T02:03:26.150Z,930.93
2019-01-28T02:03:38.722Z,930.95
2019-01-28T02:03:51.721Z,930.92
2019-01-28T02:04:04.732Z,930.96
2019-01-28T02:04:17.767Z,930.92
2019-01-28T02:04:30.671Z,930.96
2019-01-28T02:04:43.683Z,930.95
2019-01-28T02:04:56.698Z,930.98
2019-01-28T02:05:09.717Z,930.96
2019-01-28T02:05:22.732Z,930.95
2019-01-28T02:05:35.758Z,930.94
2019-01-28T02:05:48.772Z,930.96
2019-01-28T02:06:01.707Z,930.96
2019-01-28T02:06:14.698Z,930.98
2019-01-28T02:06:27.684Z,930.95
2019-01-28T02:06:40.735Z,930.95
2019-01-28T02:06:53.755Z,930.94
2019-01-28T02:07:06.857Z,930.93
2019-01-28T02:07:19.821Z,930.95
2019-01-28T02:07:32.845Z,930.94
2019-01-28T02:07:45.889Z,930.94
2019-01-28T02:07:58.888Z,930.92
2019-01-28T02:08:11.858Z,930.92
2019-01-28T02:08:24.924Z,930.91
2019-01-28T02:08:37.892Z,930.93
2019-01-28T02:08:50.893Z,930.95
2019-01-28T02:09:03.952Z,930.94
2019-01-28T02:09:16.911Z,930.89
2019-01-28T02:09:29.913Z,930.9
2019-01-28T02:09:42.959Z,930.9
2019-01-28T02:09:55.904Z,930.9
2019-01-28T02:10:08.952Z,930.88
2019-01-28T02:10:21.890Z,930.88
2019-01-28T02:10:34.409Z,930.89
2019-01-28T02:10:47.446Z,930.91
2019-01-28T02:11:00.427Z,930.88
2019-01-28T02:11:13.029Z,930.89
2019-01-28T02:11:26.044Z,930.89
2019-01-28T02:11:39.123Z,930.9
2019-01-28T02:11:52.082Z,930.88
2019-01-28T02:12:05.116Z,930.87
2019-01-28T02:12:18.132Z,930.89
2019-01-28T02:12:31.057Z,930.89
2019-01-28T02:12:44.082Z,930.84
2019-01-28T02:12:57.078Z,930.85
2019-01-28T02:13:10.156Z,930.89
2019-01-28T02:13:23.216Z,930.87
2019-01-28T02:13:36.220Z,930.89
2019-01-28T02:13:49.240Z,930.88
2019-01-28T02:14:02.339Z,930.89
2019-01-28T02:14:15.368Z,930.89
2019-01-28T02:14:28.417Z,930.87
2019-01-28T02:14:41.495Z,930.86
2019-01-28T02:14:54.539Z,930.86
2019-01-28T02:15:07.532Z,930.9
2019-01-28T02:15:20.587Z,930.87
2019-01-28T02:15:33.634Z,930.88
2019-01-28T02:15:46.611Z,930.86
2019-01-28T02:15:59.212Z,930.87
2019-01-28T02:16:12.193Z,930.88
2019-01-28T02:16:25.183Z,930.88
2019-01-28T02:16:38.203Z,930.88
2019-01-28T02:16:51.192Z,930.85
2019-01-28T02:17:03.721Z,930.87
2019-01-28T02:17:16.763Z,930.87
2019-01-28T02:17:29.850Z,930.87
2019-01-28T02:17:42.850Z,930.87
2019-01-28T02:17:55.853Z,930.86
2019-01-28T02:18:08.873Z,930.87
2019-01-28T02:18:21.449Z,930.85
2019-01-28T02:18:34.412Z,930.86
2019-01-28T02:18:47.465Z,930.82
2019-01-28T02:19:00.484Z,930.87
2019-01-28T02:19:13.422Z,930.85
2019-01-28T02:19:26.407Z,930.88
2019-01-28T02:19:39.370Z,930.85
2019-01-28T02:19:52.369Z,930.9
2019-01-28T02:20:05.442Z,930.89
2019-01-28T02:20:18.449Z,930.87
2019-01-28T02:20:31.495Z,930.9
2019-01-28T02:20:44.514Z,930.87
2019-01-28T02:20:57.453Z,930.88
2019-01-28T02:21:10.462Z,930.87
2019-01-28T02:21:23.497Z,930.86
2019-01-28T02:21:36.468Z,930.89
2019-01-28T02:21:49.478Z,930.87
2019-01-28T02:22:02.527Z,930.87
2019-01-28T02:22:15.562Z,930.92
2019-01-28T02:22:28.642Z,930.87
2019-01-28T02:22:41.599Z,930.86
2019-01-28T02:22:54.583Z,930.9
2019-01-28T02:23:07.570Z,930.92
2019-01-28T02:23:20.598Z,930.89
2019-01-28T02:23:33.620Z,930.9
2019-01-28T02:23:46.603Z,930.87
2019-01-28T02:23:59.584Z,930.89
2019-01-28T02:24:12.606Z,930.9
2019-01-28T02:24:25.579Z,930.9
2019-01-28T02:24:38.540Z,930.88
2019-01-28T02:24:51.520Z,930.88
2019-01-28T02:25:04.559Z,930.89
2019-01-28T02:25:17.139Z,930.91
2019-01-28T02:25:30.181Z,930.88
2019-01-28T02:25:43.179Z,930.85
2019-01-28T02:25:56.138Z,930.87
2019-01-28T02:26:09.151Z,930.89
2019-01-28T02:26:22.153Z,930.85
2019-01-28T02:26:35.137Z,930.85
2019-01-28T02:26:48.094Z,930.88
2019-01-28T02:27:01.185Z,930.84
2019-01-28T02:27:14.209Z,930.88
2019-01-28T02:27:27.245Z,930.88
2019-01-28T02:27:40.231Z,930.82
2019-01-28T02:27:53.234Z,930.84
2019-01-28T02:28:06.256Z,930.86
2019-01-28T02:28:19.278Z,930.85
2019-01-28T02:28:32.257Z,930.85
2019-01-28T02:28:45.244Z,930.84
2019-01-28T02:28:58.212Z,930.83
2019-01-28T02:29:11.237Z,930.84
2019-01-28T02:29:24.239Z,930.83
2019-01-28T02:29:37.277Z,930.84
2019-01-28T02:29:50.225Z,930.84
2019-01-28T02:30:03.264Z,930.83
2019-01-28T02:30:16.334Z,930.83
2019-01-28T02:30:29.439Z,930.86
2019-01-28T02:30:42.451Z,930.84
2019-01-28T02:30:56.009Z,930.86
2019-01-28T02:31:08.958Z,930.86
2019-01-28T02:31:22.034Z,930.87
2019-01-28T02:31:35.064Z,930.87
2019-01-28T02:31:48.045Z,930.87
2019-01-28T02:32:01.090Z,930.91
2019-01-28T02:32:14.162Z,930.91
2019-01-28T02:32:27.136Z,930.89
2019-01-28T02:32:40.125Z,930.88
2019-01-28T02:32:53.133Z,930.91
2019-01-28T02:33:06.134Z,930.85
2019-01-28T02:33:19.263Z,930.92
2019-01-28T02:33:32.266Z,930.89
2019-01-28T02:33:45.362Z,930.91
2019-01-28T02:33:58.345Z,930.86
2019-01-28T02:34:11.385Z,930.87
2019-01-28T02:34:24.477Z,930.88
2019-01-28T02:34:36.982Z,930.87
2019-01-28T02:34:49.951Z,930.9
2019-01-28T02:35:02.536Z,930.87
2019-01-28T02:35:15.504Z,930.91
2019-01-28T02:35:28.482Z,930.89
2019-01-28T02:35:41.542Z,930.9
2019-01-28T02:35:54.590Z,930.89
2019-01-28T02:36:07.710Z,930.95
2019-01-28T02:36:20.713Z,930.93
2019-01-28T02:36:33.714Z,930.91
2019-01-28T02:36:46.757Z,930.9
2019-01-28T02:36:59.718Z,930.91
2019-01-28T02:37:12.715Z,930.94
2019-01-28T02:37:25.732Z,930.92
2019-01-28T02:37:38.793Z,930.92
2019-01-28T02:37:51.775Z,930.94
2019-01-28T02:38:04.766Z,930.92
2019-01-28T02:38:17.739Z,930.92
2019-01-28T02:38:30.708Z,930.95
2019-01-28T02:38:43.805Z,930.93
2019-01-28T02:38:56.840Z,930.94
2019-01-28T02:39:09.851Z,930.91
2019-01-28T02:39:22.823Z,930.94
2019-01-28T02:39:35.882Z,930.92
2019-01-28T02:39:48.907Z,930.94
2019-01-28T02:40:01.939Z,930.97
2019-01-28T02:40:14.968Z,930.94
2019-01-28T02:40:27.965Z,930.94
2019-01-28T02:40:40.524Z,930.96
2019-01-28T02:40:53.558Z,930.96
2019-01-28T02:41:06.355Z,930.97
2019-01-28T02:41:19.371Z,930.98
2019-01-28T02:41:32.434Z,930.96
2019-01-28T02:41:45.467Z,930.97
2019-01-28T02:41:58.472Z,930.94
2019-01-28T02:42:11.499Z,930.96
2019-01-28T02:42:24.492Z,930.95
2019-01-28T02:42:37.541Z,930.96
2019-01-28T02:42:50.496Z,930.94
2019-01-28T02:43:03.505Z,930.97